createdAt,value
2024-02-19T00:01:47.522Z,12.17
2024-02-19T00:04:16.224Z,14.35
2024-02-19T00:06:43.671Z,10.77
2024-02-19T00:09:11.072Z,12.23
2024-02-19T00:11:39.021Z,12.48
2024-02-19T00:14:06.462Z,10.20
2024-02-19T00:16:33.776Z,10.18
2024-02-19T00:19:01.202Z,10.80
2024-02-19T00:21:28.535Z,10.15
2024-02-19T00:23:55.856Z,9.35
2024-02-19T00:26:23.131Z,9.67
2024-02-19T00:28:50.538Z,10.43
2024-02-19T00:31:17.925Z,11.00
2024-02-19T00:33:45.375Z,12.73
2024-02-19T00:36:12.767Z,12.23
2024-02-19T00:38:40.109Z,12.43
2024-02-19T00:41:07.427Z,12.82
2024-02-19T00:43:34.752Z,15.63
2024-02-19T00:46:02.117Z,14.68
2024-02-19T00:48:29.547Z,13.70
2024-02-19T00:50:56.913Z,14.37
2024-02-19T00:53:24.254Z,17.75
2024-02-19T00:55:53.892Z,20.13
2024-02-19T00:58:21.550Z,13.48
2024-02-19T01:00:49.213Z,17.55
2024-02-19T01:03:18.252Z,19.30
2024-02-19T01:05:45.802Z,16.38
2024-02-19T01:08:13.135Z,14.48
2024-02-19T01:10:40.444Z,15.70
2024-02-19T01:13:07.837Z,21.10
2024-02-19T01:15:35.184Z,20.43
2024-02-19T01:18:02.602Z,23.67
2024-02-19T01:20:29.904Z,24.42
2024-02-19T01:22:59.055Z,30.02
2024-02-19T01:25:26.498Z,25.65
2024-02-19T01:27:53.928Z,27.43
2024-02-19T01:30:23.894Z,29.50
2024-02-19T01:32:51.646Z,27.13
2024-02-19T01:35:19.006Z,28.20
2024-02-19T01:37:47.290Z,26.23
2024-02-19T01:40:14.784Z,25.83
2024-02-19T01:42:42.523Z,23.48
2024-02-19T01:45:26.409Z,25.67
2024-02-19T01:47:57.406Z,21.63
2024-02-19T01:50:25.046Z,22.48
2024-02-19T01:52:52.709Z,19.73
2024-02-19T01:55:20.336Z,19.10
2024-02-19T01:57:48.235Z,18.67
2024-02-19T02:00:17.937Z,20.98
2024-02-19T02:02:45.464Z,17.73
2024-02-19T02:05:14.213Z,20.37
2024-02-19T02:07:42.645Z,21.73
2024-02-19T02:10:10.165Z,20.50
2024-02-19T02:12:37.631Z,21.13
2024-02-19T02:15:05.369Z,17.55
2024-02-19T02:17:32.765Z,18.33
2024-02-19T02:20:00.357Z,20.35
2024-02-19T02:22:27.922Z,18.00
2024-02-19T02:24:56.393Z,24.13
2024-02-19T02:27:23.783Z,21.33
2024-02-19T02:29:51.061Z,26.63
2024-02-19T02:32:18.434Z,23.38
2024-02-19T02:34:45.738Z,25.58
2024-02-19T02:37:13.866Z,27.20
2024-02-19T02:39:41.781Z,25.95
2024-02-19T02:42:09.136Z,28.60
2024-02-19T02:44:36.409Z,24.58
2024-02-19T02:47:04.517Z,24.23
2024-02-19T02:49:31.978Z,26.88
2024-02-19T02:51:59.336Z,25.15
2024-02-19T02:54:26.669Z,25.47
2024-02-19T02:56:53.942Z,25.45
2024-02-19T02:59:21.333Z,22.15
2024-02-19T03:01:49.388Z,22.65
2024-02-19T03:04:17.764Z,29.23
2024-02-19T03:06:45.347Z,22.50
2024-02-19T03:09:12.754Z,22.10
2024-02-19T03:11:40.052Z,20.50
2024-02-19T03:14:07.931Z,17.50
2024-02-19T03:16:35.542Z,17.77
2024-02-19T03:19:06.457Z,19.80
2024-02-19T03:21:33.894Z,18.58
2024-02-19T03:24:01.177Z,18.48
2024-02-19T03:28:59.163Z,18.98
2024-02-19T03:31:26.472Z,19.57
2024-02-19T03:33:53.957Z,20.20
2024-02-19T03:36:21.366Z,23.35
2024-02-19T03:38:48.618Z,16.13
2024-02-19T03:41:15.872Z,16.42
2024-02-19T03:43:43.175Z,14.77
2024-02-19T03:46:10.594Z,15.60
2024-02-19T03:48:38.498Z,22.70
2024-02-19T03:51:05.890Z,22.42
2024-02-19T03:53:33.160Z,26.23
2024-02-19T03:56:01.258Z,23.93
2024-02-19T03:58:28.573Z,27.02
2024-02-19T04:00:56.123Z,27.52
2024-02-19T04:03:23.496Z,27.27
2024-02-19T04:05:50.843Z,26.85
2024-02-19T04:08:18.316Z,25.33
2024-02-19T04:10:45.646Z,27.33
2024-02-19T04:13:13.018Z,25.65
2024-02-19T04:15:40.347Z,20.70
2024-02-19T04:18:07.754Z,15.20
2024-02-19T04:20:35.094Z,14.87
2024-02-19T04:23:02.397Z,14.82
2024-02-19T04:25:29.767Z,13.63
2024-02-19T04:27:57.118Z,11.70
2024-02-19T04:30:24.509Z,11.77
2024-02-19T04:32:51.837Z,18.00
2024-02-19T04:35:19.879Z,16.98
2024-02-19T04:37:47.191Z,12.18
2024-02-19T04:40:15.120Z,13.98
2024-02-19T04:42:42.503Z,12.20
2024-02-19T04:45:09.940Z,13.40
2024-02-19T04:47:37.337Z,14.75
2024-02-19T04:50:05.187Z,15.65
2024-02-19T04:52:32.636Z,14.90
2024-02-19T04:54:59.992Z,14.80
2024-02-19T04:57:27.276Z,13.67
2024-02-19T04:59:54.571Z,13.63
2024-02-19T05:02:21.877Z,15.32
2024-02-19T05:04:49.360Z,15.35
2024-02-19T05:07:17.062Z,15.23
2024-02-19T05:09:44.871Z,13.90
2024-02-19T05:12:12.133Z,14.73
2024-02-19T05:14:39.406Z,15.18
2024-02-19T05:17:06.663Z,15.02
2024-02-19T05:19:34.103Z,14.40
2024-02-19T05:22:01.955Z,14.90
2024-02-19T05:24:29.391Z,15.75
2024-02-19T05:26:56.684Z,15.18
2024-02-19T05:29:25.197Z,14.48
2024-02-19T05:31:55.611Z,14.63
2024-02-19T05:34:23.032Z,14.63
2024-02-19T05:36:50.401Z,15.55
2024-02-19T05:39:17.781Z,13.57
2024-02-19T05:41:45.077Z,13.90
2024-02-19T05:44:12.483Z,14.27
2024-02-19T05:46:39.784Z,16.37
2024-02-19T05:49:07.126Z,14.60
2024-02-19T05:51:34.525Z,15.43
2024-02-19T05:54:01.807Z,15.00
2024-02-19T05:56:30.303Z,13.10
2024-02-19T05:58:57.715Z,20.87
2024-02-19T06:01:25.294Z,19.63
2024-02-19T06:03:52.655Z,21.35
2024-02-19T06:06:19.976Z,16.70
2024-02-19T06:08:47.253Z,18.50
2024-02-19T06:11:14.616Z,17.00
2024-02-19T06:13:41.924Z,16.38
2024-02-19T06:16:09.323Z,17.73
2024-02-19T06:18:36.798Z,17.55
2024-02-19T06:21:04.319Z,16.35
2024-02-19T06:23:31.581Z,17.33
2024-02-19T06:25:59.473Z,17.65
2024-02-19T06:28:26.824Z,18.90
2024-02-19T06:30:54.379Z,17.75
2024-02-19T06:33:21.751Z,20.92
2024-02-19T06:35:50.311Z,19.97
2024-02-19T06:38:17.671Z,19.80
2024-02-19T06:40:44.926Z,20.85
2024-02-19T06:43:12.210Z,19.60
2024-02-19T06:45:39.689Z,21.00
2024-02-19T06:48:07.287Z,20.33
2024-02-19T06:50:34.720Z,19.23
2024-02-19T06:53:02.072Z,16.48
2024-02-19T06:55:29.469Z,19.75
2024-02-19T06:57:57.088Z,17.45
2024-02-19T07:00:26.697Z,16.47
2024-02-19T07:02:54.064Z,19.60
2024-02-19T07:05:21.633Z,20.92
2024-02-19T07:07:49.067Z,18.60
2024-02-19T07:10:16.561Z,20.88
2024-02-19T07:12:43.943Z,21.57
2024-02-19T07:15:11.338Z,20.55
2024-02-19T07:17:38.647Z,21.02
2024-02-19T07:20:06.524Z,20.95
2024-02-19T07:22:33.978Z,20.67
2024-02-19T07:25:10.189Z,24.13
2024-02-19T07:27:44.431Z,23.85
2024-02-19T07:30:13.649Z,21.25
2024-02-19T07:32:41.071Z,20.42
2024-02-19T07:35:08.654Z,21.40
2024-02-19T07:37:36.141Z,23.93
2024-02-19T07:40:08.650Z,20.25
2024-02-19T07:42:36.146Z,20.25
2024-02-19T07:45:06.649Z,20.75
2024-02-19T07:47:34.374Z,20.52
2024-02-19T07:50:01.963Z,24.90
2024-02-19T07:52:29.383Z,18.65
2024-02-19T07:54:56.868Z,19.65
2024-02-19T07:57:24.206Z,22.25
2024-02-19T07:59:51.506Z,22.05
2024-02-19T08:02:19.081Z,19.57
2024-02-19T08:04:46.530Z,22.67
2024-02-19T08:07:13.979Z,23.17
2024-02-19T08:09:41.385Z,23.27
2024-02-19T08:12:09.789Z,23.60
2024-02-19T08:14:37.160Z,25.23
2024-02-19T08:17:04.788Z,20.50
2024-02-19T08:19:32.212Z,23.48
2024-02-19T08:22:00.057Z,22.38
2024-02-19T08:24:27.395Z,22.05
2024-02-19T08:26:54.690Z,20.57
2024-02-19T08:29:22.033Z,21.65
2024-02-19T08:31:49.429Z,23.85
2024-02-19T08:34:18.110Z,22.30
2024-02-19T08:36:45.678Z,22.65
2024-02-19T08:39:13.007Z,25.33
2024-02-19T08:41:40.295Z,24.92
2024-02-19T08:44:07.580Z,21.45
2024-02-19T08:46:34.934Z,20.92
2024-02-19T08:49:02.312Z,25.45
2024-02-19T08:51:30.659Z,25.70
2024-02-19T08:54:00.051Z,24.55
2024-02-19T08:56:27.731Z,27.77
2024-02-19T08:58:55.033Z,27.58
2024-02-19T09:01:22.583Z,25.38
2024-02-19T09:03:50.147Z,24.63
2024-02-19T09:06:18.108Z,24.00
2024-02-19T09:08:45.474Z,28.02
2024-02-19T09:11:12.784Z,24.58
2024-02-19T09:13:40.108Z,25.40
2024-02-19T09:16:07.625Z,26.90
2024-02-19T09:18:35.198Z,26.75
2024-02-19T09:21:02.640Z,25.25
2024-02-19T09:23:31.533Z,26.67
2024-02-19T09:25:59.202Z,25.48
2024-02-19T09:28:26.645Z,26.80
2024-02-19T09:30:54.787Z,24.67
2024-02-19T09:33:22.407Z,24.92
2024-02-19T09:35:49.735Z,24.63
2024-02-19T09:38:17.189Z,23.30
2024-02-19T09:40:48.587Z,24.03
2024-02-19T09:43:16.489Z,27.98
2024-02-19T09:45:44.696Z,27.17
2024-02-19T09:48:12.292Z,27.25
2024-02-19T09:50:48.434Z,26.27
2024-02-19T09:53:28.610Z,26.23
2024-02-19T09:55:57.158Z,27.05
2024-02-19T09:58:24.799Z,28.55
2024-02-19T10:00:52.347Z,25.75
2024-02-19T10:03:20.090Z,25.20
2024-02-19T10:05:48.957Z,26.77
2024-02-19T10:08:17.605Z,28.30
2024-02-19T10:10:46.532Z,26.92
2024-02-19T10:13:14.831Z,25.27
2024-02-19T10:15:42.498Z,25.98
2024-02-19T10:18:16.958Z,25.33
2024-02-19T10:20:52.072Z,25.80
2024-02-19T10:23:22.634Z,27.65
2024-02-19T10:25:50.827Z,27.05
2024-02-19T10:28:22.662Z,24.52
2024-02-19T10:30:50.305Z,25.37
2024-02-19T10:33:17.725Z,25.70
2024-02-19T10:35:45.476Z,28.17
2024-02-19T10:38:13.214Z,26.23
2024-02-19T10:40:40.555Z,23.48
2024-02-19T10:43:07.857Z,26.87
2024-02-19T10:45:35.617Z,27.42
2024-02-19T10:48:03.004Z,24.40
2024-02-19T10:50:33.726Z,25.33
2024-02-19T10:53:01.225Z,24.45
2024-02-19T10:55:36.554Z,25.67
2024-02-19T10:58:16.419Z,25.20
2024-02-19T11:00:44.341Z,28.75
2024-02-19T11:03:14.827Z,28.83
2024-02-19T11:05:44.070Z,27.13
2024-02-19T11:08:21.293Z,25.53
2024-02-19T11:10:51.511Z,27.27
2024-02-19T11:13:28.647Z,27.08
2024-02-19T11:15:56.647Z,28.05
2024-02-19T11:18:24.270Z,29.27
2024-02-19T11:20:51.919Z,27.83
2024-02-19T11:23:20.215Z,28.50
2024-02-19T11:25:47.867Z,29.55
2024-02-19T11:28:15.279Z,27.48
2024-02-19T11:30:42.725Z,25.15
2024-02-19T11:33:10.882Z,26.73
2024-02-19T11:35:39.095Z,26.30
2024-02-19T11:38:06.518Z,27.80
2024-02-19T11:40:34.390Z,32.50
2024-02-19T11:43:05.189Z,28.67
2024-02-19T11:45:32.955Z,35.63
2024-02-19T11:48:00.435Z,31.40
2024-02-19T11:50:31.198Z,22.70
2024-02-19T11:53:01.905Z,14.55
2024-02-19T11:55:31.431Z,14.60
2024-02-19T11:58:03.054Z,12.90
2024-02-19T12:00:32.162Z,14.25
2024-02-19T12:03:00.354Z,13.23
2024-02-19T12:05:28.158Z,14.45
2024-02-19T12:07:57.416Z,13.65
2024-02-19T12:10:24.942Z,14.20
2024-02-19T12:12:52.878Z,19.25
2024-02-19T12:15:20.767Z,17.98
2024-02-19T12:17:53.179Z,14.27
2024-02-19T12:20:21.071Z,15.68
2024-02-19T12:22:49.169Z,13.97
2024-02-19T12:25:16.617Z,15.02
2024-02-19T12:27:44.275Z,15.52
2024-02-19T12:30:11.712Z,16.15
2024-02-19T12:32:40.475Z,13.13
2024-02-19T12:35:08.512Z,14.40
2024-02-19T12:37:36.048Z,18.27
2024-02-19T12:40:04.619Z,21.08
2024-02-19T12:42:32.243Z,15.38
2024-02-19T12:44:59.554Z,15.95
2024-02-19T12:47:27.239Z,16.70
2024-02-19T12:49:54.811Z,14.18
2024-02-19T12:52:28.793Z,13.65
2024-02-19T12:54:56.672Z,17.45
2024-02-19T12:57:24.334Z,18.67
2024-02-19T12:59:51.798Z,16.77
2024-02-19T13:02:19.558Z,18.17
2024-02-19T13:04:48.364Z,17.70
2024-02-19T13:07:16.572Z,16.13
2024-02-19T13:09:45.431Z,19.05
2024-02-19T13:12:15.265Z,18.27
2024-02-19T13:14:44.631Z,15.90
2024-02-19T13:17:16.826Z,17.38
2024-02-19T13:19:49.565Z,16.10
2024-02-19T13:22:17.206Z,14.32
2024-02-19T13:24:44.673Z,17.17
2024-02-19T13:27:13.107Z,15.23
2024-02-19T13:29:40.523Z,17.25
2024-02-19T13:32:08.849Z,16.98
2024-02-19T13:34:37.074Z,21.42
2024-02-19T13:37:05.228Z,18.33
2024-02-19T13:39:34.345Z,19.75
2024-02-19T13:42:01.952Z,17.45
2024-02-19T13:44:29.305Z,21.33
2024-02-19T13:46:56.613Z,18.45
2024-02-19T13:49:24.029Z,19.30
2024-02-19T13:51:51.526Z,16.73
2024-02-19T13:54:18.978Z,17.02
2024-02-19T13:56:46.747Z,18.98
2024-02-19T13:59:15.709Z,18.38
2024-02-19T14:01:43.331Z,21.13
2024-02-19T14:04:10.888Z,17.80
2024-02-19T14:06:38.745Z,19.67
2024-02-19T14:09:06.211Z,18.95
2024-02-19T14:11:34.085Z,19.80
2024-02-19T14:14:03.143Z,19.40
2024-02-19T14:16:31.687Z,19.77
2024-02-19T14:19:00.624Z,21.23
2024-02-19T14:21:29.600Z,18.88
2024-02-19T14:23:57.233Z,20.30
2024-02-19T14:26:25.169Z,20.10
2024-02-19T14:28:55.642Z,19.42
2024-02-19T14:31:23.921Z,18.48
2024-02-19T14:33:52.446Z,18.90
2024-02-19T14:36:20.925Z,21.02
2024-02-19T14:38:50.233Z,20.27
2024-02-19T14:41:17.602Z,21.58
2024-02-19T14:43:47.726Z,21.48
2024-02-19T14:46:15.013Z,19.58
2024-02-19T14:48:43.756Z,22.30
2024-02-19T14:51:12.360Z,21.43
2024-02-19T14:53:40.604Z,19.98
2024-02-19T14:56:09.142Z,22.05
2024-02-19T14:58:36.467Z,21.25
2024-02-19T15:01:03.937Z,24.42
2024-02-19T15:03:31.335Z,21.43
2024-02-19T15:05:59.046Z,24.23
2024-02-19T15:08:26.485Z,22.77
2024-02-19T15:10:53.896Z,20.27
2024-02-19T15:13:21.299Z,22.25
2024-02-19T15:15:48.763Z,23.37
2024-02-19T15:18:16.737Z,23.90
2024-02-19T15:20:44.624Z,22.08
2024-02-19T15:23:12.152Z,22.30
2024-02-19T15:25:41.034Z,22.23
2024-02-19T15:28:09.140Z,22.50
2024-02-19T15:30:36.469Z,24.77
2024-02-19T15:33:03.967Z,21.08
2024-02-19T15:35:31.456Z,21.65
2024-02-19T15:37:58.895Z,22.60
2024-02-19T15:40:26.938Z,20.60
2024-02-19T15:42:57.713Z,22.45
2024-02-19T15:45:25.050Z,22.80
2024-02-19T15:47:52.404Z,20.88
2024-02-19T15:50:19.937Z,24.35
2024-02-19T15:52:55.497Z,21.50
2024-02-19T15:55:29.334Z,25.23
2024-02-19T15:57:58.240Z,23.17
2024-02-19T16:00:25.801Z,23.60
2024-02-19T16:02:53.079Z,25.25
2024-02-19T16:05:20.441Z,29.17
2024-02-19T16:07:50.213Z,34.42
2024-02-19T16:10:17.564Z,37.03
2024-02-19T16:12:46.312Z,37.20
2024-02-19T16:15:14.420Z,38.55
2024-02-19T16:17:41.923Z,40.70
2024-02-19T16:20:10.040Z,40.88
2024-02-19T16:22:37.837Z,40.50
2024-02-19T16:25:08.043Z,45.45
2024-02-19T16:27:36.821Z,41.53
2024-02-19T16:30:07.101Z,38.90
2024-02-19T16:32:36.585Z,39.30
2024-02-19T16:35:04.387Z,42.03
2024-02-19T16:37:32.165Z,40.25
2024-02-19T16:39:59.676Z,40.35
2024-02-19T16:42:27.016Z,45.60
2024-02-19T16:44:54.340Z,39.20
2024-02-19T16:47:21.650Z,41.42
2024-02-19T16:49:49.010Z,40.42
2024-02-19T16:52:16.729Z,43.45
2024-02-19T16:54:44.588Z,43.30
2024-02-19T16:57:11.975Z,40.50
2024-02-19T16:59:39.268Z,41.00
2024-02-19T17:02:06.651Z,40.03
2024-02-19T17:04:34.121Z,39.60
2024-02-19T17:07:03.088Z,38.50
2024-02-19T17:09:33.328Z,39.38
2024-02-19T17:12:01.051Z,35.40
2024-02-19T17:14:28.376Z,49.13
2024-02-19T17:16:58.155Z,44.40
2024-02-19T17:19:25.756Z,46.53
2024-02-19T17:21:53.144Z,44.38
2024-02-19T17:24:20.711Z,49.58
2024-02-19T17:26:48.490Z,51.33
2024-02-19T17:29:15.840Z,51.88
2024-02-19T17:31:46.440Z,47.10
2024-02-19T17:34:14.634Z,50.33
2024-02-19T17:36:42.027Z,51.60
2024-02-19T17:39:09.304Z,48.50
2024-02-19T17:41:36.568Z,52.10
2024-02-19T17:44:03.945Z,60.97
2024-02-19T17:46:31.443Z,73.90
2024-02-19T17:48:59.063Z,74.30
2024-02-19T17:51:29.653Z,74.30
2024-02-19T17:53:59.751Z,76.90
2024-02-19T17:56:29.561Z,77.63
2024-02-19T17:58:57.288Z,71.72
2024-02-19T18:01:26.960Z,78.30
2024-02-19T18:03:54.944Z,78.75
2024-02-19T18:06:22.432Z,76.22
2024-02-19T18:08:52.939Z,72.67
2024-02-19T18:11:20.475Z,75.53
2024-02-19T18:13:48.095Z,71.35
2024-02-19T18:16:15.972Z,74.50
2024-02-19T18:18:45.876Z,76.95
2024-02-19T18:21:13.365Z,72.20
2024-02-19T18:23:40.776Z,69.57
2024-02-19T18:26:08.445Z,67.05
2024-02-19T18:28:37.063Z,68.55
2024-02-19T18:31:13.965Z,69.60
2024-02-19T18:33:41.281Z,66.23
2024-02-19T18:36:08.592Z,72.63
2024-02-19T18:38:38.511Z,78.93
2024-02-19T18:41:07.031Z,70.18
2024-02-19T18:43:34.531Z,70.00
2024-02-19T18:46:02.911Z,71.00
2024-02-19T18:48:31.667Z,65.65
2024-02-19T18:50:59.854Z,59.65
2024-02-19T18:53:27.917Z,71.32
2024-02-19T18:56:02.495Z,68.18
2024-02-19T18:58:30.483Z,69.07
2024-02-19T19:01:01.698Z,72.93
2024-02-19T19:03:29.315Z,69.43
2024-02-19T19:06:00.462Z,70.95
2024-02-19T19:08:27.912Z,78.20
2024-02-19T19:10:55.264Z,65.63
2024-02-19T19:13:22.631Z,59.92
2024-02-19T19:15:50.144Z,63.17
2024-02-19T19:18:17.794Z,54.58
2024-02-19T19:20:45.199Z,58.13
2024-02-19T19:23:12.566Z,61.23
2024-02-19T19:25:39.921Z,56.50
2024-02-19T19:28:07.499Z,53.55
2024-02-19T19:30:34.862Z,56.03
2024-02-19T19:33:02.250Z,53.92
2024-02-19T19:35:29.706Z,58.00
2024-02-19T19:37:58.168Z,51.15
2024-02-19T19:40:25.595Z,46.58
2024-02-19T19:42:54.079Z,52.70
2024-02-19T19:45:22.949Z,52.78
2024-02-19T19:47:50.482Z,49.30
2024-02-19T19:50:20.151Z,51.38
2024-02-19T19:52:47.843Z,56.25
2024-02-19T19:55:15.322Z,51.17
2024-02-19T19:57:48.138Z,59.60
2024-02-19T20:00:16.182Z,52.90
2024-02-19T20:02:45.653Z,53.92
2024-02-19T20:05:13.342Z,53.83
2024-02-19T20:07:41.053Z,55.03
2024-02-19T20:10:11.662Z,55.38
2024-02-19T20:12:38.956Z,54.83
2024-02-19T20:15:07.173Z,59.30
2024-02-19T20:17:36.214Z,57.88
2024-02-19T20:20:04.507Z,59.28
2024-02-19T20:22:32.165Z,52.25
2024-02-19T20:24:59.591Z,56.77
2024-02-19T20:27:27.014Z,57.50
2024-02-19T20:29:54.912Z,58.50
2024-02-19T20:32:23.355Z,54.42
2024-02-19T20:34:50.981Z,54.40
2024-02-19T20:37:18.505Z,58.50
2024-02-19T20:39:46.367Z,53.50
2024-02-19T20:42:16.086Z,51.72
2024-02-19T20:44:46.843Z,53.72
2024-02-19T20:47:14.415Z,48.47
2024-02-19T20:49:44.024Z,57.77
2024-02-19T20:52:11.780Z,53.70
2024-02-19T20:54:39.145Z,56.38
2024-02-19T20:57:09.687Z,70.45
2024-02-19T20:59:37.492Z,71.60
2024-02-19T21:02:05.158Z,70.70
2024-02-19T21:04:36.307Z,76.95
2024-02-19T21:07:07.237Z,75.97
2024-02-19T21:09:36.490Z,86.15
2024-02-19T21:12:04.151Z,86.68
2024-02-19T21:14:31.532Z,87.03
2024-02-19T21:16:59.452Z,85.32
2024-02-19T21:19:26.916Z,86.25
2024-02-19T21:21:54.526Z,92.38
2024-02-19T21:24:21.982Z,89.25
2024-02-19T21:26:49.288Z,76.60
2024-02-19T21:29:16.620Z,80.97
2024-02-19T21:31:44.008Z,78.97
2024-02-19T21:34:13.028Z,79.28
2024-02-19T21:36:40.859Z,77.10
2024-02-19T21:39:08.342Z,74.63
2024-02-19T21:41:38.292Z,78.95
2024-02-19T21:44:08.569Z,78.22
2024-02-19T21:46:37.493Z,68.47
2024-02-19T21:49:05.190Z,64.53
2024-02-19T21:51:32.666Z,67.23
2024-02-19T21:53:59.956Z,66.10
2024-02-19T21:56:27.468Z,69.32
2024-02-19T21:58:54.992Z,70.78
2024-02-19T22:01:22.763Z,71.18
2024-02-19T22:03:51.442Z,69.73
2024-02-19T22:06:18.995Z,71.47
2024-02-19T22:08:46.349Z,67.65
2024-02-19T22:11:15.514Z,68.57
2024-02-19T22:13:42.793Z,76.78
2024-02-19T22:16:10.188Z,69.90
2024-02-19T22:18:38.797Z,70.43
2024-02-19T22:21:06.224Z,73.90
2024-02-19T22:23:33.477Z,78.63
2024-02-19T22:26:00.771Z,82.50
2024-02-19T22:28:32.016Z,77.23
2024-02-19T22:30:59.553Z,82.32
2024-02-19T22:33:27.226Z,85.25
2024-02-19T22:35:54.564Z,82.07
2024-02-19T22:38:21.828Z,82.22
2024-02-19T22:40:49.122Z,81.90
2024-02-19T22:43:16.390Z,88.43
2024-02-19T22:45:43.677Z,85.65
2024-02-19T22:48:11.267Z,85.50
2024-02-19T22:50:38.989Z,94.95
2024-02-19T22:53:06.408Z,94.67
2024-02-19T22:55:33.764Z,95.00
2024-02-19T22:58:01.128Z,88.22
2024-02-19T23:00:35.749Z,86.80
2024-02-19T23:03:04.627Z,85.22
2024-02-19T23:05:32.708Z,87.87
2024-02-19T23:08:00.580Z,92.82
2024-02-19T23:10:28.097Z,87.47
2024-02-19T23:12:55.535Z,75.45
2024-02-19T23:15:22.911Z,77.70
2024-02-19T23:17:50.385Z,66.93
2024-02-19T23:20:17.755Z,87.22
2024-02-19T23:22:46.473Z,77.93
2024-02-19T23:25:14.227Z,80.75
2024-02-19T23:27:41.717Z,77.10
2024-02-19T23:30:09.342Z,83.77
2024-02-19T23:32:37.238Z,83.45
2024-02-19T23:35:06.463Z,79.40
2024-02-19T23:37:34.104Z,82.03
2024-02-19T23:40:01.716Z,76.53
2024-02-19T23:42:29.210Z,84.13
2024-02-19T23:44:56.494Z,89.90
2024-02-19T23:47:23.930Z,81.68
2024-02-19T23:49:51.284Z,78.93
2024-02-19T23:52:18.693Z,77.43
2024-02-19T23:54:46.040Z,84.37
2024-02-19T23:57:13.366Z,82.43
2024-02-19T23:59:40.719Z,74.78
